This is the latest recevied weather packets stored in our database for station/object RV1CJ-14. If no packets are shown the sender has not sent any weather packets the latest 10 day(s).
| Time | Temp. | Humidity | Pressure | Rain* | Wind** | Luminosity | Snow |
|---|---|---|---|---|---|---|---|
| 1788538203 | 12.22° C | 96% | 994.3 hPa | 0 mm | - | 7 W/m² | - |
| 1788535803 | 12.22° C | 96% | 994 hPa | 0 mm | - | 11 W/m² | - |
| 1788532203 | 12.22° C | 95% | 992.4 hPa | 0 mm | - | 58 W/m² | - |
| 1788525003 | 15° C | 96% | 993 hPa | 0 mm | - | 21 W/m² | - |
| 1788522003 | 15° C | 96% | 993.6 hPa | 0 mm | - | 12 W/m² | - |
| 1788521403 | 15° C | 96% | 993.7 hPa | 0 mm | - | 32 W/m² | - |
| 1788518403 | 13.33° C | 96% | 994.4 hPa | 0 mm | - | 39 W/m² | - |
| 1788517803 | 13.33° C | 96% | 994.5 hPa | 0 mm | - | 25 W/m² | - |
| 1788514803 | 12.22° C | 96% | 995.3 hPa | 0 mm | - | 14 W/m² | - |
| 1788514203 | 11.67° C | 96% | 995.5 hPa | 0 mm | - | 25 W/m² | - |
| 1788511203 | 11.67° C | 95% | 997.2 hPa | 0 mm | - | 18 W/m² | - |
| 1788510603 | 11.67° C | 95% | 997.3 hPa | 0 mm | - | 19 W/m² | - |
| 1788510003 | 11.67° C | 95% | 997.5 hPa | 0 mm | - | 11 W/m² | - |
| 1788509403 | 11.67° C | 95% | 997.7 hPa | 0 mm | - | 14 W/m² | - |
| 1788508803 | 11.67° C | 95% | 997.9 hPa | 0 mm | - | 12 W/m² | - |
| 1788507603 | 11.67° C | 95% | 998.4 hPa | 0 mm | - | 11 W/m² | - |
| 1788507003 | 11.67° C | 95% | 998.7 hPa | 0 mm | - | 11 W/m² | - |
| 1788506403 | 11.67° C | 95% | 998.7 hPa | 0 mm | - | 21 W/m² | - |
| 1788505803 | 11.67° C | 95% | 999.1 hPa | 0 mm | - | 16 W/m² | - |
| 1788504003 | 11.11° C | 95% | 999.2 hPa | 0 mm | - | 23 W/m² | - |
| 1788503403 | 11.67° C | 94% | 999.5 hPa | 0 mm | - | 25 W/m² | - |
| 1788502803 | 11.67° C | 94% | 999.7 hPa | 0 mm | - | 23 W/m² | - |
| 1788502203 | 11.67° C | 94% | 999.9 hPa | 0 mm | - | 14 W/m² | - |
| 1788501603 | 11.67° C | 94% | 1000.1 hPa | 0 mm | - | 16 W/m² | - |
| 1788500403 | 11.11° C | 93% | 1000.5 hPa | 0 mm | - | 12 W/m² | - |
* Rain latest hour (hover to see other rain measurements)
** Current wind speed in m/s (hover to see current wind gust speed)